sensor_id;sensor_type;location;lat;lon;timestamp;temperature;humidity
40434;DHT22;26146;51.114;5.654;2022-09-09T00:03:19;16.60;99.90
40434;DHT22;26146;51.114;5.654;2022-09-09T00:16:02;16.30;99.90
40434;DHT22;26146;51.114;5.654;2022-09-09T00:20:48;16.20;99.90
40434;DHT22;26146;51.114;5.654;2022-09-09T00:24:53;16.20;99.90
40434;DHT22;26146;51.114;5.654;2022-09-09T00:29:05;16.20;99.90
40434;DHT22;26146;51.114;5.654;2022-09-09T00:33:12;16.20;99.90
40434;DHT22;26146;51.114;5.654;2022-09-09T00:37:15;16.20;99.90
40434;DHT22;26146;51.114;5.654;2022-09-09T00:50:09;16.10;99.90
40434;DHT22;26146;51.114;5.654;2022-09-09T00:58:32;16.00;99.90
40434;DHT22;26146;51.114;5.654;2022-09-09T01:06:56;16.00;99.90
40434;DHT22;26146;51.114;5.654;2022-09-09T01:11:01;16.00;99.90
40434;DHT22;26146;51.114;5.654;2022-09-09T01:15:09;16.00;99.90
40434;DHT22;26146;51.114;5.654;2022-09-09T01:19:20;15.90;99.90
40434;DHT22;26146;51.114;5.654;2022-09-09T01:27:52;15.90;99.90
40434;DHT22;26146;51.114;5.654;2022-09-09T01:31:56;15.80;99.90
40434;DHT22;26146;51.114;5.654;2022-09-09T01:36:05;15.70;99.90
40434;DHT22;26146;51.114;5.654;2022-09-09T01:40:10;15.70;99.90
40434;DHT22;26146;51.114;5.654;2022-09-09T01:44:11;15.80;99.90
40434;DHT22;26146;51.114;5.654;2022-09-09T01:48:12;15.80;99.90
40434;DHT22;26146;51.114;5.654;2022-09-09T01:52:13;15.70;99.90
40434;DHT22;26146;51.114;5.654;2022-09-09T02:00:48;15.70;99.90
40434;DHT22;26146;51.114;5.654;2022-09-09T02:04:56;15.70;99.90
40434;DHT22;26146;51.114;5.654;2022-09-09T02:09:02;15.70;99.90
40434;DHT22;26146;51.114;5.654;2022-09-09T02:13:12;15.60;99.90
40434;DHT22;26146;51.114;5.654;2022-09-09T02:17:16;15.70;99.90
40434;DHT22;26146;51.114;5.654;2022-09-09T02:21:19;15.70;99.90
40434;DHT22;26146;51.114;5.654;2022-09-09T02:25:23;15.70;99.90
40434;DHT22;26146;51.114;5.654;2022-09-09T02:29:29;15.60;99.90
40434;DHT22;26146;51.114;5.654;2022-09-09T02:33:35;15.60;99.90
40434;DHT22;26146;51.114;5.654;2022-09-09T02:37:38;15.70;99.90
40434;DHT22;26146;51.114;5.654;2022-09-09T02:41:41;15.60;99.90
40434;DHT22;26146;51.114;5.654;2022-09-09T02:45:51;15.60;99.90
40434;DHT22;26146;51.114;5.654;2022-09-09T02:50:12;15.70;99.90
40434;DHT22;26146;51.114;5.654;2022-09-09T02:54:33;15.50;99.90
40434;DHT22;26146;51.114;5.654;2022-09-09T02:58:34;15.50;99.90
40434;DHT22;26146;51.114;5.654;2022-09-09T03:02:35;15.60;99.90
40434;DHT22;26146;51.114;5.654;2022-09-09T03:06:36;15.60;99.90
40434;DHT22;26146;51.114;5.654;2022-09-09T03:10:37;15.60;99.90
40434;DHT22;26146;51.114;5.654;2022-09-09T03:14:47;15.60;99.90
40434;DHT22;26146;51.114;5.654;2022-09-09T03:18:48;15.60;99.90
40434;DHT22;26146;51.114;5.654;2022-09-09T03:22:48;15.50;99.90
40434;DHT22;26146;51.114;5.654;2022-09-09T03:26:50;15.60;99.90
40434;DHT22;26146;51.114;5.654;2022-09-09T03:30:51;15.60;99.90
40434;DHT22;26146;51.114;5.654;2022-09-09T03:34:52;15.60;99.90
40434;DHT22;26146;51.114;5.654;2022-09-09T03:38:54;15.60;99.90
40434;DHT22;26146;51.114;5.654;2022-09-09T03:42:58;15.60;99.90
40434;DHT22;26146;51.114;5.654;2022-09-09T03:46:58;15.60;99.90
40434;DHT22;26146;51.114;5.654;2022-09-09T03:51:01;15.60;99.90
40434;DHT22;26146;51.114;5.654;2022-09-09T03:55:03;15.60;99.90
40434;DHT22;26146;51.114;5.654;2022-09-09T03:59:04;15.70;99.90
40434;DHT22;26146;51.114;5.654;2022-09-09T04:03:07;15.70;99.90
40434;DHT22;26146;51.114;5.654;2022-09-09T04:07:08;15.80;99.90
40434;DHT22;26146;51.114;5.654;2022-09-09T04:11:09;15.90;99.90
40434;DHT22;26146;51.114;5.654;2022-09-09T04:15:10;16.00;99.90
40434;DHT22;26146;51.114;5.654;2022-09-09T04:19:12;16.00;99.90
40434;DHT22;26146;51.114;5.654;2022-09-09T04:23:15;16.10;99.90
40434;DHT22;26146;51.114;5.654;2022-09-09T04:27:17;16.00;99.90
40434;DHT22;26146;51.114;5.654;2022-09-09T04:31:21;16.10;99.90
40434;DHT22;26146;51.114;5.654;2022-09-09T04:35:23;16.10;99.90
40434;DHT22;26146;51.114;5.654;2022-09-09T04:39:24;16.10;99.90
40434;DHT22;26146;51.114;5.654;2022-09-09T04:43:28;16.10;99.90
40434;DHT22;26146;51.114;5.654;2022-09-09T04:47:29;16.10;99.90
40434;DHT22;26146;51.114;5.654;2022-09-09T04:51:30;16.00;99.90
40434;DHT22;26146;51.114;5.654;2022-09-09T04:55:32;16.00;99.90
40434;DHT22;26146;51.114;5.654;2022-09-09T04:59:36;15.90;99.90
40434;DHT22;26146;51.114;5.654;2022-09-09T05:03:40;15.90;99.90
40434;DHT22;26146;51.114;5.654;2022-09-09T05:08:06;15.70;99.90
40434;DHT22;26146;51.114;5.654;2022-09-09T05:12:09;15.70;99.90
40434;DHT22;26146;51.114;5.654;2022-09-09T05:16:10;15.80;99.90
40434;DHT22;26146;51.114;5.654;2022-09-09T05:20:13;15.80;99.90
40434;DHT22;26146;51.114;5.654;2022-09-09T05:24:14;15.80;99.90
40434;DHT22;26146;51.114;5.654;2022-09-09T05:28:18;15.90;99.90
40434;DHT22;26146;51.114;5.654;2022-09-09T05:32:19;16.00;99.90
40434;DHT22;26146;51.114;5.654;2022-09-09T05:36:21;16.00;99.90
40434;DHT22;26146;51.114;5.654;2022-09-09T05:40:22;16.20;99.90
40434;DHT22;26146;51.114;5.654;2022-09-09T05:44:23;16.20;99.90
40434;DHT22;26146;51.114;5.654;2022-09-09T05:48:31;16.20;99.90
40434;DHT22;26146;51.114;5.654;2022-09-09T05:52:32;16.10;99.90
40434;DHT22;26146;51.114;5.654;2022-09-09T05:56:33;16.20;99.90
40434;DHT22;26146;51.114;5.654;2022-09-09T06:00:34;16.30;99.90
40434;DHT22;26146;51.114;5.654;2022-09-09T06:04:37;16.40;99.90
40434;DHT22;26146;51.114;5.654;2022-09-09T06:08:41;16.40;99.90
40434;DHT22;26146;51.114;5.654;2022-09-09T06:12:44;16.40;99.90
40434;DHT22;26146;51.114;5.654;2022-09-09T06:16:45;16.60;99.90
40434;DHT22;26146;51.114;5.654;2022-09-09T06:20:57;16.90;99.90
40434;DHT22;26146;51.114;5.654;2022-09-09T06:24:58;17.40;99.90
40434;DHT22;26146;51.114;5.654;2022-09-09T06:29:02;17.70;99.90
40434;DHT22;26146;51.114;5.654;2022-09-09T06:33:04;17.60;99.90
40434;DHT22;26146;51.114;5.654;2022-09-09T06:37:05;17.60;99.90
40434;DHT22;26146;51.114;5.654;2022-09-09T06:41:08;17.40;99.90
40434;DHT22;26146;51.114;5.654;2022-09-09T06:45:10;17.30;99.90
40434;DHT22;26146;51.114;5.654;2022-09-09T06:49:11;17.50;99.90
40434;DHT22;26146;51.114;5.654;2022-09-09T06:53:12;17.80;99.90
40434;DHT22;26146;51.114;5.654;2022-09-09T06:57:17;18.00;99.90
40434;DHT22;26146;51.114;5.654;2022-09-09T07:01:20;18.30;99.90
40434;DHT22;26146;51.114;5.654;2022-09-09T07:05:21;18.40;99.90
40434;DHT22;26146;51.114;5.654;2022-09-09T07:09:22;18.50;99.90
40434;DHT22;26146;51.114;5.654;2022-09-09T07:13:25;18.30;99.90
40434;DHT22;26146;51.114;5.654;2022-09-09T07:17:27;18.30;99.90
40434;DHT22;26146;51.114;5.654;2022-09-09T07:21:33;18.20;99.90
40434;DHT22;26146;51.114;5.654;2022-09-09T07:25:34;18.10;99.90
40434;DHT22;26146;51.114;5.654;2022-09-09T07:29:35;18.30;99.90
40434;DHT22;26146;51.114;5.654;2022-09-09T07:33:36;18.50;99.90
40434;DHT22;26146;51.114;5.654;2022-09-09T07:37:39;18.60;99.90
40434;DHT22;26146;51.114;5.654;2022-09-09T07:41:45;19.00;99.90
40434;DHT22;26146;51.114;5.654;2022-09-09T07:45:46;19.30;99.90
40434;DHT22;26146;51.114;5.654;2022-09-09T07:49:47;18.90;99.90
40434;DHT22;26146;51.114;5.654;2022-09-09T07:54:02;19.00;99.90
40434;DHT22;26146;51.114;5.654;2022-09-09T07:58:03;18.80;99.90
40434;DHT22;26146;51.114;5.654;2022-09-09T08:02:04;18.80;99.90
40434;DHT22;26146;51.114;5.654;2022-09-09T08:06:07;19.10;99.90
40434;DHT22;26146;51.114;5.654;2022-09-09T08:10:09;19.40;99.90
40434;DHT22;26146;51.114;5.654;2022-09-09T08:14:11;19.60;99.90
40434;DHT22;26146;51.114;5.654;2022-09-09T08:18:13;19.60;99.90
40434;DHT22;26146;51.114;5.654;2022-09-09T08:22:13;20.00;99.90
40434;DHT22;26146;51.114;5.654;2022-09-09T08:26:17;20.30;99.90
40434;DHT22;26146;51.114;5.654;2022-09-09T08:30:20;20.20;99.90
40434;DHT22;26146;51.114;5.654;2022-09-09T08:34:21;20.20;99.90
40434;DHT22;26146;51.114;5.654;2022-09-09T08:38:22;20.20;99.90
40434;DHT22;26146;51.114;5.654;2022-09-09T08:42:36;20.40;99.90
40434;DHT22;26146;51.114;5.654;2022-09-09T08:51:00;20.20;99.90
40434;DHT22;26146;51.114;5.654;2022-09-09T08:55:05;20.00;99.90
40434;DHT22;26146;51.114;5.654;2022-09-09T08:59:17;19.90;99.90
40434;DHT22;26146;51.114;5.654;2022-09-09T09:03:40;20.10;99.90
40434;DHT22;26146;51.114;5.654;2022-09-09T09:12:06;19.90;99.90
40434;DHT22;26146;51.114;5.654;2022-09-09T09:21:29;20.30;99.90
40434;DHT22;26146;51.114;5.654;2022-09-09T09:29:20;20.60;99.90
40434;DHT22;26146;51.114;5.654;2022-09-09T09:37:35;20.10;99.90
40434;DHT22;26146;51.114;5.654;2022-09-09T09:41:54;19.90;99.90
40434;DHT22;26146;51.114;5.654;2022-09-09T09:45:58;19.40;99.90
40434;DHT22;26146;51.114;5.654;2022-09-09T09:50:00;19.50;99.90
40434;DHT22;26146;51.114;5.654;2022-09-09T09:54:15;19.60;99.90
40434;DHT22;26146;51.114;5.654;2022-09-09T09:58:19;19.90;99.90
40434;DHT22;26146;51.114;5.654;2022-09-09T10:02:24;20.10;99.90
40434;DHT22;26146;51.114;5.654;2022-09-09T10:06:34;20.40;99.90
40434;DHT22;26146;51.114;5.654;2022-09-09T10:19:56;20.60;99.90
40434;DHT22;26146;51.114;5.654;2022-09-09T10:33:16;20.70;99.90
40434;DHT22;26146;51.114;5.654;2022-09-09T10:45:59;20.40;99.90
40434;DHT22;26146;51.114;5.654;2022-09-09T10:55:02;20.00;99.90
40434;DHT22;26146;51.114;5.654;2022-09-09T10:59:14;20.00;99.90
40434;DHT22;26146;51.114;5.654;2022-09-09T11:03:20;19.80;99.90
40434;DHT22;26146;51.114;5.654;2022-09-09T11:07:41;20.00;99.90
40434;DHT22;26146;51.114;5.654;2022-09-09T11:11:56;19.90;99.90
40434;DHT22;26146;51.114;5.654;2022-09-09T11:16:10;19.70;99.90
40434;DHT22;26146;51.114;5.654;2022-09-09T11:20:14;19.30;99.90
40434;DHT22;26146;51.114;5.654;2022-09-09T11:24:31;19.50;99.90
40434;DHT22;26146;51.114;5.654;2022-09-09T11:42:26;21.20;99.90
40434;DHT22;26146;51.114;5.654;2022-09-09T11:46:38;21.50;99.90
40434;DHT22;26146;51.114;5.654;2022-09-09T11:50:39;21.40;99.90
40434;DHT22;26146;51.114;5.654;2022-09-09T11:54:48;21.70;99.90
40434;DHT22;26146;51.114;5.654;2022-09-09T11:59:02;21.90;99.90
40434;DHT22;26146;51.114;5.654;2022-09-09T12:03:05;22.20;99.90
40434;DHT22;26146;51.114;5.654;2022-09-09T12:11:12;22.90;99.90
40434;DHT22;26146;51.114;5.654;2022-09-09T12:15:28;23.10;99.90
40434;DHT22;26146;51.114;5.654;2022-09-09T12:19:29;23.10;99.90
40434;DHT22;26146;51.114;5.654;2022-09-09T12:28:08;23.10;99.90
40434;DHT22;26146;51.114;5.654;2022-09-09T12:32:22;23.00;99.90
40434;DHT22;26146;51.114;5.654;2022-09-09T12:36:29;23.10;99.90
40434;DHT22;26146;51.114;5.654;2022-09-09T12:40:34;23.10;99.90
40434;DHT22;26146;51.114;5.654;2022-09-09T12:44:37;23.10;99.90
40434;DHT22;26146;51.114;5.654;2022-09-09T12:48:40;22.60;99.90
40434;DHT22;26146;51.114;5.654;2022-09-09T12:52:44;22.50;99.90
40434;DHT22;26146;51.114;5.654;2022-09-09T12:56:48;22.10;99.90
40434;DHT22;26146;51.114;5.654;2022-09-09T13:00:54;21.80;99.90
40434;DHT22;26146;51.114;5.654;2022-09-09T13:05:08;21.40;99.90
40434;DHT22;26146;51.114;5.654;2022-09-09T13:09:16;21.30;99.90
40434;DHT22;26146;51.114;5.654;2022-09-09T13:13:19;21.20;99.90
40434;DHT22;26146;51.114;5.654;2022-09-09T13:17:22;20.90;99.90
40434;DHT22;26146;51.114;5.654;2022-09-09T13:21:39;20.80;99.90
40434;DHT22;26146;51.114;5.654;2022-09-09T13:25:40;21.00;99.90
40434;DHT22;26146;51.114;5.654;2022-09-09T13:29:51;21.30;99.90
40434;DHT22;26146;51.114;5.654;2022-09-09T13:33:56;21.50;99.90
40434;DHT22;26146;51.114;5.654;2022-09-09T13:38:00;21.60;99.90
40434;DHT22;26146;51.114;5.654;2022-09-09T13:42:24;21.60;99.90
40434;DHT22;26146;51.114;5.654;2022-09-09T13:46:37;21.90;99.90
40434;DHT22;26146;51.114;5.654;2022-09-09T13:50:40;22.50;99.90
40434;DHT22;26146;51.114;5.654;2022-09-09T13:54:42;22.40;99.90
40434;DHT22;26146;51.114;5.654;2022-09-09T13:58:43;22.20;99.90
40434;DHT22;26146;51.114;5.654;2022-09-09T14:02:44;22.00;99.90
40434;DHT22;26146;51.114;5.654;2022-09-09T14:06:48;22.40;99.90
40434;DHT22;26146;51.114;5.654;2022-09-09T14:10:49;22.40;99.90
40434;DHT22;26146;51.114;5.654;2022-09-09T14:14:51;22.30;99.90
40434;DHT22;26146;51.114;5.654;2022-09-09T14:18:52;22.20;99.90
40434;DHT22;26146;51.114;5.654;2022-09-09T14:22:53;22.40;99.90
40434;DHT22;26146;51.114;5.654;2022-09-09T14:26:54;22.70;99.90
40434;DHT22;26146;51.114;5.654;2022-09-09T14:30:59;22.80;99.90
40434;DHT22;26146;51.114;5.654;2022-09-09T14:35:01;22.80;99.90
40434;DHT22;26146;51.114;5.654;2022-09-09T14:39:04;23.10;99.90
40434;DHT22;26146;51.114;5.654;2022-09-09T14:43:05;23.00;99.80
40434;DHT22;26146;51.114;5.654;2022-09-09T14:47:06;23.10;99.90
40434;DHT22;26146;51.114;5.654;2022-09-09T14:51:14;23.10;99.30
40434;DHT22;26146;51.114;5.654;2022-09-09T14:55:16;22.90;98.10
40434;DHT22;26146;51.114;5.654;2022-09-09T14:59:17;22.80;98.80
40434;DHT22;26146;51.114;5.654;2022-09-09T15:03:21;22.90;98.30
40434;DHT22;26146;51.114;5.654;2022-09-09T15:07:26;22.70;98.80
40434;DHT22;26146;51.114;5.654;2022-09-09T15:11:28;22.60;99.00
40434;DHT22;26146;51.114;5.654;2022-09-09T15:15:31;22.50;99.10
40434;DHT22;26146;51.114;5.654;2022-09-09T15:19:31;22.60;99.10
40434;DHT22;26146;51.114;5.654;2022-09-09T15:23:33;22.60;99.60
40434;DHT22;26146;51.114;5.654;2022-09-09T15:27:37;22.60;99.00
40434;DHT22;26146;51.114;5.654;2022-09-09T15:31:39;22.90;98.50
40434;DHT22;26146;51.114;5.654;2022-09-09T15:35:40;23.10;97.20
40434;DHT22;26146;51.114;5.654;2022-09-09T15:39:41;23.00;97.30
40434;DHT22;26146;51.114;5.654;2022-09-09T15:43:47;22.90;97.40
40434;DHT22;26146;51.114;5.654;2022-09-09T15:47:48;22.60;97.20
40434;DHT22;26146;51.114;5.654;2022-09-09T15:51:54;22.40;97.50
40434;DHT22;26146;51.114;5.654;2022-09-09T15:55:55;22.30;97.80
40434;DHT22;26146;51.114;5.654;2022-09-09T15:59:59;22.40;97.90
40434;DHT22;26146;51.114;5.654;2022-09-09T16:04:00;22.40;98.20
40434;DHT22;26146;51.114;5.654;2022-09-09T16:08:01;22.40;98.30
40434;DHT22;26146;51.114;5.654;2022-09-09T16:12:04;22.60;98.30
40434;DHT22;26146;51.114;5.654;2022-09-09T16:16:14;22.80;98.20
40434;DHT22;26146;51.114;5.654;2022-09-09T16:20:15;22.90;98.30
40434;DHT22;26146;51.114;5.654;2022-09-09T16:24:19;22.80;98.50
40434;DHT22;26146;51.114;5.654;2022-09-09T16:28:20;22.60;98.70
40434;DHT22;26146;51.114;5.654;2022-09-09T16:32:21;22.20;98.90
40434;DHT22;26146;51.114;5.654;2022-09-09T16:36:24;21.90;99.80
40434;DHT22;26146;51.114;5.654;2022-09-09T16:40:26;21.90;99.90
40434;DHT22;26146;51.114;5.654;2022-09-09T16:44:27;21.70;99.90
40434;DHT22;26146;51.114;5.654;2022-09-09T16:48:32;21.60;99.90
40434;DHT22;26146;51.114;5.654;2022-09-09T16:52:37;21.60;99.90
40434;DHT22;26146;51.114;5.654;2022-09-09T16:56:40;21.60;99.90
40434;DHT22;26146;51.114;5.654;2022-09-09T17:00:44;21.50;99.90
40434;DHT22;26146;51.114;5.654;2022-09-09T17:04:47;21.50;99.90
40434;DHT22;26146;51.114;5.654;2022-09-09T17:08:53;21.30;99.90
40434;DHT22;26146;51.114;5.654;2022-09-09T17:12:54;21.20;99.90
40434;DHT22;26146;51.114;5.654;2022-09-09T17:16:55;20.60;99.90
40434;DHT22;26146;51.114;5.654;2022-09-09T17:21:06;19.70;99.90
40434;DHT22;26146;51.114;5.654;2022-09-09T17:25:08;19.70;99.90
40434;DHT22;26146;51.114;5.654;2022-09-09T17:29:09;19.60;99.90
40434;DHT22;26146;51.114;5.654;2022-09-09T17:33:11;19.50;99.90
40434;DHT22;26146;51.114;5.654;2022-09-09T17:37:13;19.40;99.90
40434;DHT22;26146;51.114;5.654;2022-09-09T17:41:20;19.30;99.90
40434;DHT22;26146;51.114;5.654;2022-09-09T17:45:21;19.00;99.90
40434;DHT22;26146;51.114;5.654;2022-09-09T17:49:21;18.90;99.90
40434;DHT22;26146;51.114;5.654;2022-09-09T17:53:22;18.30;99.90
40434;DHT22;26146;51.114;5.654;2022-09-09T17:57:24;18.00;99.90
40434;DHT22;26146;51.114;5.654;2022-09-09T18:01:29;17.70;99.90
40434;DHT22;26146;51.114;5.654;2022-09-09T18:05:30;17.50;99.90
40434;DHT22;26146;51.114;5.654;2022-09-09T18:09:31;17.30;99.90
40434;DHT22;26146;51.114;5.654;2022-09-09T18:13:33;17.20;99.90
40434;DHT22;26146;51.114;5.654;2022-09-09T18:17:34;17.10;99.90
40434;DHT22;26146;51.114;5.654;2022-09-09T18:21:36;17.10;99.90
40434;DHT22;26146;51.114;5.654;2022-09-09T18:25:40;17.10;99.90
40434;DHT22;26146;51.114;5.654;2022-09-09T18:29:41;17.10;99.90
40434;DHT22;26146;51.114;5.654;2022-09-09T18:33:44;17.00;99.90
40434;DHT22;26146;51.114;5.654;2022-09-09T18:37:46;17.00;99.90
40434;DHT22;26146;51.114;5.654;2022-09-09T18:41:49;17.10;99.90
40434;DHT22;26146;51.114;5.654;2022-09-09T18:45:51;16.90;99.90
40434;DHT22;26146;51.114;5.654;2022-09-09T18:49:52;17.00;99.90
40434;DHT22;26146;51.114;5.654;2022-09-09T18:53:59;17.10;99.90
40434;DHT22;26146;51.114;5.654;2022-09-09T18:58:00;17.10;99.90
40434;DHT22;26146;51.114;5.654;2022-09-09T19:02:03;17.00;99.90
40434;DHT22;26146;51.114;5.654;2022-09-09T19:06:10;17.00;99.90
40434;DHT22;26146;51.114;5.654;2022-09-09T19:10:12;17.00;99.90
40434;DHT22;26146;51.114;5.654;2022-09-09T19:14:15;17.00;99.90
40434;DHT22;26146;51.114;5.654;2022-09-09T19:18:17;17.10;99.90
40434;DHT22;26146;51.114;5.654;2022-09-09T19:22:18;17.00;99.90
40434;DHT22;26146;51.114;5.654;2022-09-09T19:26:18;17.00;99.90
40434;DHT22;26146;51.114;5.654;2022-09-09T19:30:20;17.10;99.90
40434;DHT22;26146;51.114;5.654;2022-09-09T19:34:21;17.10;99.90
40434;DHT22;26146;51.114;5.654;2022-09-09T19:38:22;17.10;99.90
40434;DHT22;26146;51.114;5.654;2022-09-09T19:42:23;17.20;99.90
40434;DHT22;26146;51.114;5.654;2022-09-09T19:46:25;17.30;99.90
40434;DHT22;26146;51.114;5.654;2022-09-09T19:50:26;17.30;99.90
40434;DHT22;26146;51.114;5.654;2022-09-09T19:54:28;17.20;99.90
40434;DHT22;26146;51.114;5.654;2022-09-09T19:58:31;17.10;99.90
40434;DHT22;26146;51.114;5.654;2022-09-09T20:02:36;17.30;99.90
40434;DHT22;26146;51.114;5.654;2022-09-09T20:06:39;17.20;99.90
40434;DHT22;26146;51.114;5.654;2022-09-09T20:10:49;17.00;99.90
40434;DHT22;26146;51.114;5.654;2022-09-09T20:14:51;17.20;99.90
40434;DHT22;26146;51.114;5.654;2022-09-09T20:18:56;17.00;99.90
40434;DHT22;26146;51.114;5.654;2022-09-09T20:22:58;16.90;99.90
40434;DHT22;26146;51.114;5.654;2022-09-09T20:26:58;16.90;99.90
40434;DHT22;26146;51.114;5.654;2022-09-09T20:31:08;17.00;99.90
40434;DHT22;26146;51.114;5.654;2022-09-09T20:35:13;17.00;99.90
40434;DHT22;26146;51.114;5.654;2022-09-09T20:39:19;17.00;99.90
40434;DHT22;26146;51.114;5.654;2022-09-09T20:43:20;17.20;99.90
40434;DHT22;26146;51.114;5.654;2022-09-09T20:47:21;17.30;99.90
40434;DHT22;26146;51.114;5.654;2022-09-09T20:51:23;17.30;99.90
40434;DHT22;26146;51.114;5.654;2022-09-09T20:55:24;17.30;99.90
40434;DHT22;26146;51.114;5.654;2022-09-09T20:59:29;17.20;99.90
40434;DHT22;26146;51.114;5.654;2022-09-09T21:03:35;17.20;99.90
40434;DHT22;26146;51.114;5.654;2022-09-09T21:07:39;17.10;99.90
40434;DHT22;26146;51.114;5.654;2022-09-09T21:11:40;17.10;99.90
40434;DHT22;26146;51.114;5.654;2022-09-09T21:15:44;16.90;99.90
40434;DHT22;26146;51.114;5.654;2022-09-09T21:19:45;16.90;99.90
40434;DHT22;26146;51.114;5.654;2022-09-09T21:23:47;17.00;99.90
40434;DHT22;26146;51.114;5.654;2022-09-09T21:27:48;17.00;99.90
40434;DHT22;26146;51.114;5.654;2022-09-09T21:31:49;17.00;99.90
40434;DHT22;26146;51.114;5.654;2022-09-09T21:35:50;17.00;99.90
40434;DHT22;26146;51.114;5.654;2022-09-09T21:39:51;17.10;99.90
40434;DHT22;26146;51.114;5.654;2022-09-09T21:43:52;17.10;99.90
40434;DHT22;26146;51.114;5.654;2022-09-09T21:47:54;17.10;99.90
40434;DHT22;26146;51.114;5.654;2022-09-09T21:51:54;17.10;99.90
40434;DHT22;26146;51.114;5.654;2022-09-09T21:56:06;16.90;99.90
40434;DHT22;26146;51.114;5.654;2022-09-09T22:00:08;16.80;99.90
40434;DHT22;26146;51.114;5.654;2022-09-09T22:04:12;16.70;99.90
40434;DHT22;26146;51.114;5.654;2022-09-09T22:08:14;16.70;99.90
40434;DHT22;26146;51.114;5.654;2022-09-09T22:12:15;16.70;99.90
40434;DHT22;26146;51.114;5.654;2022-09-09T22:16:18;16.60;99.90
40434;DHT22;26146;51.114;5.654;2022-09-09T22:20:19;16.70;99.90
40434;DHT22;26146;51.114;5.654;2022-09-09T22:24:20;16.70;99.90
40434;DHT22;26146;51.114;5.654;2022-09-09T22:28:22;16.70;99.90
40434;DHT22;26146;51.114;5.654;2022-09-09T22:32:23;16.80;99.90
40434;DHT22;26146;51.114;5.654;2022-09-09T22:36:24;16.80;99.90
40434;DHT22;26146;51.114;5.654;2022-09-09T22:40:25;16.70;99.90
40434;DHT22;26146;51.114;5.654;2022-09-09T22:44:26;16.80;99.90
40434;DHT22;26146;51.114;5.654;2022-09-09T22:48:32;16.70;99.90
40434;DHT22;26146;51.114;5.654;2022-09-09T22:52:32;16.80;99.90
40434;DHT22;26146;51.114;5.654;2022-09-09T22:56:33;16.80;99.90
40434;DHT22;26146;51.114;5.654;2022-09-09T23:00:37;16.70;99.90
40434;DHT22;26146;51.114;5.654;2022-09-09T23:04:39;16.80;99.90
40434;DHT22;26146;51.114;5.654;2022-09-09T23:08:40;16.80;99.90
40434;DHT22;26146;51.114;5.654;2022-09-09T23:12:41;16.80;99.90
40434;DHT22;26146;51.114;5.654;2022-09-09T23:16:44;16.80;99.90
40434;DHT22;26146;51.114;5.654;2022-09-09T23:20:55;16.80;99.90
40434;DHT22;26146;51.114;5.654;2022-09-09T23:25:01;16.70;99.90
40434;DHT22;26146;51.114;5.654;2022-09-09T23:29:02;16.70;99.90
40434;DHT22;26146;51.114;5.654;2022-09-09T23:33:06;16.70;99.90
40434;DHT22;26146;51.114;5.654;2022-09-09T23:37:07;16.70;99.90
40434;DHT22;26146;51.114;5.654;2022-09-09T23:41:13;16.60;99.90
40434;DHT22;26146;51.114;5.654;2022-09-09T23:45:14;16.60;99.90
40434;DHT22;26146;51.114;5.654;2022-09-09T23:49:18;16.70;99.90
40434;DHT22;26146;51.114;5.654;2022-09-09T23:53:18;16.60;99.90
40434;DHT22;26146;51.114;5.654;2022-09-09T23:57:19;16.50;99.90
